Thunder radar more information blitzortung!


Radar de pluja more information rain snow radar


Visita la nostra xarxa de llocs de meteo:

Template documentation
and downloads

And another site



Wind From: 11-12-2017 11:00 Until: 14:59 warning for: Wind Level: Yellow info button

Pagina Historial Weather Underground text

Diari Resum Agost 19, 2017 Unitats:  Imperial    Mètric   Tant
« Previous Dia
SegĂźent Dia »
Diari Setmana Mensual Anual Personalitzada
  Maxima: Minima: Media:
Temperatura: 86 °F 72.1 °F 76.8 °F
Punt de rosada: 68.4 °F 58.5 °F 64.8 °F
Humitat: 75 % 49 % 67 %
Wind Speed: 12.7 mph 0 mph 3.9 mph
RĂ fegues de vent: 12.7 mph - -
Vent:- - South
Pression baro: 30.1 in 30 in -
Precipitacions: 0 in    
Historical Graphs
 
 
Dades de taula per Agost 19, 2017
Temps Temperatura Punt de rosada Pression baro Vent Wind Speed RĂ fegues de vent Humitat Rainfall Rate (Hourly)
00:04 79.3 °F 58.5 °F 30 in ENE 5.8 mph 5.8 mph 49 % 0 in
00:09 79.3 °F 59.2 °F 30 in NNE 6.9 mph 6.9 mph 50 % 0 in
00:14 79.2 °F 59.5 °F 30 in East 5.8 mph 5.8 mph 51 % 0 in
00:19 78.6 °F 61.2 °F 30 in ENE 5.8 mph 5.8 mph 55 % 0 in
00:24 78.3 °F 62.2 °F 30 in NNE 6.9 mph 6.9 mph 58 % 0 in
00:29 77.9 °F 63 °F 30 in ESE 5.8 mph 5.8 mph 60 % 0 in
00:34 77.7 °F 63.7 °F 30 in NNE 4.6 mph 4.6 mph 62 % 0 in
00:39 77.5 °F 64.8 °F 30 in NE 4.6 mph 4.6 mph 65 % 0 in
00:44 77.4 °F 64.8 °F 30 in East 5.8 mph 5.8 mph 65 % 0 in
00:49 77.2 °F 64.9 °F 30 in NE 3.5 mph 3.5 mph 66 % 0 in
00:50 77.2 °F 64.9 °F 30 in ESE 3.8 mph 3.8 mph 66 % 0 in
00:55 76.8 °F 65.8 °F 30 in East 8.1 mph 8.1 mph 69 % 0 in
01:00 76.6 °F 66 °F 30 in East 6.9 mph 6.9 mph 70 % 0 in
01:05 76.6 °F 66.6 °F 30 in East 4.6 mph 4.6 mph 71 % 0 in
01:10 76.5 °F 66.7 °F 30 in ESE 4.6 mph 4.6 mph 72 % 0 in
01:15 76.5 °F 66.4 °F 30 in East 4.6 mph 4.6 mph 71 % 0 in
01:20 76.5 °F 66.7 °F 30 in NE 2.3 mph 2.3 mph 72 % 0 in
01:25 76.3 °F 66.9 °F 30 in ESE 5.8 mph 5.8 mph 73 % 0 in
01:30 76.3 °F 66.9 °F 30 in ESE 4.6 mph 4.6 mph 73 % 0 in
01:35 76.3 °F 66.9 °F 30 in ENE 4.7 mph 4.7 mph 73 % 0 in
01:40 76.3 °F 66.9 °F 30 in ENE 3.5 mph 3.5 mph 73 % 0 in
01:45 76.3 °F 66.6 °F 30 in NNE 4.6 mph 4.6 mph 72 % 0 in
01:50 76.3 °F 66.9 °F 30 in NE 4.6 mph 4.6 mph 73 % 0 in
01:55 76.3 °F 67.5 °F 30 in ENE 4.9 mph 4.9 mph 74 % 0 in
02:00 76.1 °F 66.7 °F 30 in NE 3.6 mph 3.6 mph 73 % 0 in
02:05 76.1 °F 67.3 °F 30 in ENE 3.5 mph 3.5 mph 74 % 0 in
02:06 76.3 °F 67.5 °F 30 in ENE 3.5 mph 3.5 mph 74 % 0 in
02:11 76.1 °F 67.3 °F 30 in NNE 3.5 mph 3.5 mph 74 % 0 in
02:16 76.1 °F 66.7 °F 30 in ESE 2.6 mph 2.6 mph 73 % 0 in
02:21 76.1 °F 67.3 °F 30 in East 4.6 mph 4.6 mph 74 % 0 in
02:26 76.1 °F 67.3 °F 30 in ESE 2.3 mph 2.3 mph 74 % 0 in
02:31 76.1 °F 66.7 °F 30 in ENE 3.1 mph 3.1 mph 73 % 0 in
02:36 76.1 °F 67.3 °F 30 in East 4.6 mph 4.6 mph 74 % 0 in
02:41 76.1 °F 67.3 °F 30 in ENE 3.6 mph 3.6 mph 74 % 0 in
02:46 76.1 °F 66.7 °F 30 in ENE 3.5 mph 3.5 mph 73 % 0 in
02:51 76.1 °F 66.7 °F 30 in NE 2.3 mph 2.3 mph 73 % 0 in
02:56 76.1 °F 67.3 °F 30 in ENE 2.3 mph 2.3 mph 74 % 0 in
03:01 76.1 °F 66.7 °F 30 in ENE 2.9 mph 2.9 mph 73 % 0 in
03:06 76.1 °F 66.7 °F 30 in NE 1.4 mph 2 mph 73 % 0 in
03:11 75.9 °F 66.6 °F 30 in ESE 3.6 mph 3.6 mph 73 % 0 in
03:16 75.9 °F 66.9 °F 30 in ESE 2.3 mph   74 % 0 in
03:21 75.9 °F 66.6 °F 30 in SSE 2.3 mph 2.3 mph 73 % 0 in
03:26 75.9 °F 66.9 °F 30 in WSW 2.3 mph 2.3 mph 74 % 0 in
03:31 75.9 °F 66.9 °F 30 in WSW 1.2 mph 1.4 mph 74 % 0 in
03:36 75.9 °F 66.9 °F 30 in SSE 1.6 mph   74 % 0 in
03:41 75.7 °F 66.9 °F 30 in WSW 2.3 mph 2.3 mph 74 % 0 in
03:46 75.4 °F 66 °F 30 in WSW 2.3 mph 2.3 mph 73 % 0 in
03:51 75.2 °F 65.7 °F 30 in WSW 2.3 mph 2.3 mph 72 % 0 in
03:56 75.2 °F 65.1 °F 30 in WSW 1.4 mph 1.4 mph 71 % 0 in
04:01 75.2 °F 65.1 °F 30 in West 2.3 mph 2.3 mph 71 % 0 in
04:06 75.4 °F 65.7 °F 30 in WSW 1.2 mph   72 % 0 in
04:11 75.4 °F 65.3 °F 30 in WSW 2.3 mph 2.3 mph 71 % 0 in
04:16 75.4 °F 65.7 °F 30 in West 1.2 mph   72 % 0 in
04:21 75.2 °F 65.8 °F 30 in WSW 1.2 mph   73 % 0 in
04:26 75.2 °F 65.8 °F 30 in Calm     73 % 0 in
04:31 75 °F 66.2 °F 30 in Calm     74 % 0 in
04:36 74.8 °F 66 °F 30 in Calm     74 % 0 in
04:41 74.8 °F 65.7 °F 30 in Calm     73 % 0 in
04:42 74.8 °F 65.7 °F 30 in Calm     73 % 0 in
04:47 74.7 °F 65.8 °F 30 in Calm     74 % 0 in
04:52 74.7 °F 65.5 °F 30 in SW 2.3 mph   73 % 0 in
04:57 74.5 °F 65.3 °F 30 in South 2.3 mph 2.3 mph 73 % 0 in
05:02 74.5 °F 64.9 °F 30 in SW 2.3 mph 2.3 mph 72 % 0 in
05:07 74.5 °F 64.6 °F 30 in SSW 2.3 mph 2.3 mph 71 % 0 in
05:12 74.5 °F 64.9 °F 30 in East 1.2 mph   72 % 0 in
05:17 74.1 °F 64 °F 30 in WSW 2.6 mph 2.6 mph 71 % 0 in
05:20 73.9 °F 63.5 °F 30 in WSW 2.3 mph 2.3 mph 70 % 0 in
05:21 73.9 °F 63.5 °F 30 in WSW 2.3 mph 2.3 mph 70 % 0 in
05:23 73.9 °F 63.5 °F 30 in WSW 2.3 mph 2.3 mph 70 % 0 in
05:26 73.9 °F 63.9 °F 30 in Calm     71 % 0 in
05:31 73.9 °F 63.9 °F 30 in WSW 1.2 mph   71 % 0 in
05:36 73.8 °F 63.9 °F 30 in SW 1.2 mph 1.2 mph 71 % 0 in
05:41 73.8 °F 63.9 °F 30 in SW 1.4 mph   71 % 0 in
05:46 73.9 °F 63.5 °F 30 in WSW 1.6 mph 1.6 mph 70 % 0 in
05:51 73.9 °F 63.5 °F 30 in WSW 2.3 mph 2.3 mph 70 % 0 in
05:56 73.9 °F 63.9 °F 30 in SW 1.2 mph   71 % 0 in
06:01 73.9 °F 63.5 °F 30 in WSW 2.3 mph 2.3 mph 70 % 0 in
06:06 73.9 °F 63.5 °F 30 in West 2.4 mph 2.4 mph 70 % 0 in
06:11 74.1 °F 64 °F 30 in Calm     71 % 0 in
06:16 74.1 °F 64 °F 30 in Calm     71 % 0 in
06:21 74.1 °F 64.6 °F 30 in Calm     72 % 0 in
06:26 74.1 °F 64.6 °F 30 in Calm     72 % 0 in
06:31 74.1 °F 64.6 °F 30 in WNW 1.2 mph   72 % 0 in
06:36 74.3 °F 64.8 °F 30 in NW 2.3 mph 2.3 mph 72 % 0 in
06:41 74.3 °F 64.8 °F 30 in WNW 2.3 mph 2.3 mph 72 % 0 in
06:46 74.3 °F 65.1 °F 30 in NW 1.2 mph   73 % 0 in
06:51 74.1 °F 64.9 °F 30 in Calm     73 % 0 in
06:56 74.1 °F 64.9 °F 30 in Calm     73 % 0 in
07:01 73.9 °F 64.8 °F 30 in Calm     73 % 0 in
07:06 73.8 °F 64.6 °F 30 in SSE 2.3 mph 2.3 mph 73 % 0 in
07:11 73.4 °F 64.6 °F 30 in SSE 5.8 mph 5.8 mph 74 % 0 in
07:16 73 °F 63.9 °F 30 in South 2.3 mph   73 % 0 in
07:21 72.7 °F 63.5 °F 30 in South 1.4 mph 1.4 mph 73 % 0 in
07:26 72.7 °F 63.1 °F 30 in WSW 2.3 mph 2.3 mph 72 % 0 in
07:31 72.5 °F 63 °F 30 in WSW 2.3 mph 2.3 mph 72 % 0 in
07:36 72.5 °F 63 °F 30 in West 2.4 mph 2.4 mph 72 % 0 in
07:41 72.5 °F 63 °F 30 in WSW 2.4 mph 2.4 mph 72 % 0 in
07:46 72.7 °F 63.1 °F 30 in West 2.4 mph 2.4 mph 72 % 0 in
07:51 72.9 °F 63.3 °F 30 in WSW 3.5 mph 3.5 mph 72 % 0 in
07:56 73 °F 63.9 °F 30 in WNW 2.9 mph 2.9 mph 73 % 0 in
08:01 73.2 °F 64 °F 30 in WNW 1.6 mph 1.6 mph 73 % 0 in
08:06 73.4 °F 63.9 °F 30 in West 4.6 mph 4.6 mph 72 % 0 in
08:11 73.6 °F 64.4 °F 30 in WSW 2.3 mph 2.3 mph 73 % 0 in
08:16 73.8 °F 64.6 °F 30 in WNW 3.6 mph 3.6 mph 73 % 0 in
08:21 73.9 °F 64.8 °F 30 in SW 2.3 mph 2.3 mph 73 % 0 in
08:26 74.5 °F 65.3 °F 30 in SSW 2.3 mph 2.3 mph 73 % 0 in
08:31 74.7 °F 65.5 °F 30 in SW 2.3 mph 2.3 mph 73 % 0 in
08:36 74.8 °F 65.1 °F 30 in West 2.3 mph 2.3 mph 72 % 0 in
08:41 75.2 °F 65.1 °F 30 in NNE 2.6 mph   71 % 0 in
08:46 74.8 °F 65.1 °F 30 in NNW 4.3 mph 4.3 mph 72 % 0 in
08:51 74.3 °F 64.2 °F 30 in NW 4.6 mph 4.6 mph 71 % 0 in
08:56 74.5 °F 64 °F 30 in NE 4.6 mph 4.6 mph 70 % 0 in
09:01 74.1 °F 63.7 °F 30 in NNE 2.3 mph 2.3 mph 70 % 0 in
09:06 73.8 °F 63.3 °F 30 in NNW 3.8 mph 3.8 mph 70 % 0 in
09:12 73.6 °F 62.8 °F 30 in ENE 4.6 mph 4.6 mph 69 % 0 in
09:17 73.6 °F 62.8 °F 30 in ESE 3.5 mph 3.5 mph 69 % 0 in
09:22 73.4 °F 62.6 °F 30 in NE 3.1 mph 3.1 mph 69 % 0 in
09:27 73.4 °F 62.6 °F 30 in ENE 2.4 mph 2.4 mph 69 % 0 in
09:32 73.2 °F 62.4 °F 30 in NNE 1.4 mph 1.4 mph 69 % 0 in
09:37 73.4 °F 62.6 °F 30 in WNW 2.3 mph 2.3 mph 69 % 0 in
09:42 73.4 °F 62.6 °F 30 in NNW 2.3 mph   69 % 0 in
09:47 73.6 °F 62.8 °F 30 in NNW 2.3 mph 2.3 mph 69 % 0 in
09:52 73.6 °F 62.8 °F 30 in NE 2.6 mph 2.6 mph 69 % 0 in
09:57 73.8 °F 62.4 °F 30 in North 3.6 mph 3.6 mph 68 % 0 in
10:02 73.8 °F 62.4 °F 30 in NNW 3.5 mph 3.5 mph 68 % 0 in
10:07 73.8 °F 62.4 °F 30 in WNW 2.3 mph 2.3 mph 68 % 0 in
10:12 73.8 °F 62.4 °F 30 in North 2.3 mph 2.3 mph 68 % 0 in
10:17 73.2 °F 62.8 °F 30.1 in WNW 2.3 mph 2.3 mph 70 % 0 in
10:22 72.7 °F 62.8 °F 30.1 in ENE 2.3 mph 2.3 mph 71 % 0 in
10:27 72.3 °F 62.8 °F 30.1 in ENE 2.3 mph 2.3 mph 72 % 0 in
10:32 72.1 °F 63 °F 30.1 in NNE 2.3 mph   73 % 0 in
10:37 72.1 °F 63.3 °F 30.1 in NE 1.2 mph   74 % 0 in
10:42 72.1 °F 63.3 °F 30.1 in NNE 2.3 mph 2.3 mph 74 % 0 in
10:47 72.3 °F 63.7 °F 30.1 in NNE 2.3 mph 2.3 mph 74 % 0 in
10:52 72.5 °F 64 °F 30.1 in NNE 2.6 mph 2.6 mph 75 % 0 in
10:57 72.5 °F 63.7 °F 30.1 in North 3.5 mph 3.5 mph 74 % 0 in
11:02 73 °F 64.2 °F 30.1 in ENE 3.5 mph 3.5 mph 74 % 0 in
11:07 73 °F 63.9 °F 30.1 in NE 2.9 mph 2.9 mph 73 % 0 in
11:12 73.2 °F 64 °F 30.1 in ENE 3.5 mph 3.5 mph 73 % 0 in
11:17 73.2 °F 63.7 °F 30.1 in NNE 3.5 mph 3.5 mph 72 % 0 in
11:22 73.8 °F 64.2 °F 30.1 in NNE 3.5 mph 3.5 mph 72 % 0 in
11:27 73.9 °F 63.9 °F 30.1 in ENE 4.6 mph 4.6 mph 71 % 0 in
11:32 74.1 °F 63.7 °F 30.1 in NE 4.6 mph 4.6 mph 70 % 0 in
11:37 74.1 °F 63.7 °F 30.1 in NNE 3.5 mph 3.5 mph 70 % 0 in
11:42 74.3 °F 63.5 °F 30.1 in WNW 1.2 mph   69 % 0 in
11:47 74.5 °F 64.6 °F 30.1 in West 1.2 mph   71 % 0 in
11:52 74.3 °F 64.2 °F 30.1 in ENE 2.3 mph 2.3 mph 71 % 0 in
12:02 74.5 °F 63.7 °F 30.1 in NNE 2.3 mph 2.3 mph 69 % 0 in
12:07 74.7 °F 63.9 °F 30.1 in East 1.2 mph 1.2 mph 69 % 0 in
12:12 74.8 °F 64 °F 30.1 in NE 2 mph 2 mph 69 % 0 in
12:17 75 °F 64.2 °F 30.1 in ENE 2.9 mph 2.9 mph 69 % 0 in
12:22 75 °F 64.6 °F 30.1 in ESE 2.3 mph 2.3 mph 70 % 0 in
12:27 75.6 °F 64.8 °F 30.1 in ESE 2.9 mph 2.9 mph 69 % 0 in
12:32 76.5 °F 66.4 °F 30.1 in East 4 mph 4 mph 71 % 0 in
12:37 77 °F 65.7 °F 30.1 in SE 2.3 mph 2.3 mph 68 % 0 in
12:42 77 °F 65.7 °F 30 in ESE 3.5 mph 3.5 mph 68 % 0 in
12:47 77 °F 65.1 °F 30 in ENE 4.6 mph 4.6 mph 67 % 0 in
12:52 77.2 °F 65.5 °F 30 in SE 4.6 mph 4.6 mph 67 % 0 in
12:57 77 °F 65.1 °F 30 in East 4.6 mph 4.6 mph 67 % 0 in
13:02 77.4 °F 65.5 °F 30 in SSW 4.6 mph 4.6 mph 67 % 0 in
13:07 78.3 °F 66.4 °F 30 in SSE 3.1 mph 3.1 mph 67 % 0 in
13:12 77.5 °F 65.7 °F 30 in SSE 5.8 mph 5.8 mph 67 % 0 in
13:17 77.7 °F 65.8 °F 30 in East 4.6 mph 4.6 mph 67 % 0 in
13:22 77.7 °F 65.8 °F 30 in ESE 5.8 mph 5.8 mph 67 % 0 in
13:27 77.4 °F 66 °F 30 in ENE 4.6 mph 4.6 mph 68 % 0 in
13:32 77.5 °F 66.9 °F 30 in East 6.9 mph 6.9 mph 70 % 0 in
13:37 77.4 °F 67.3 °F 30 in ESE 8.1 mph 8.1 mph 71 % 0 in
13:42 77.4 °F 67.6 °F 30 in ENE 4.6 mph 4.6 mph 72 % 0 in
13:47 77.2 °F 67.5 °F 30 in ESE 6.2 mph 6.2 mph 72 % 0 in
13:52 77.2 °F 67.5 °F 30 in ENE 4.6 mph 4.6 mph 72 % 0 in
13:57 77.5 °F 67.8 °F 30 in East 4.6 mph 4.6 mph 72 % 0 in
14:02 77.7 °F 68 °F 30 in ENE 3.5 mph 3.5 mph 72 % 0 in
14:07 77.5 °F 67.8 °F 30 in ESE 3.5 mph 3.5 mph 72 % 0 in
14:12 78.1 °F 68.4 °F 30 in East 2.3 mph 2.6 mph 72 % 0 in
14:17 78.6 °F 68.4 °F 30 in NNE 4.6 mph 4.6 mph 71 % 0 in
14:22 78.6 °F 68 °F 30 in ESE 3.5 mph 3.5 mph 70 % 0 in
14:27 79.2 °F 68.2 °F 30.1 in SW 4.6 mph 4.6 mph 69 % 0 in
14:32 80.6 °F 68.2 °F 30.1 in SSE 4.6 mph 4.6 mph 66 % 0 in
14:37 81.3 °F 68 °F 30.1 in ESE 5.8 mph 5.8 mph 64 % 0 in
14:42 82.6 °F 68.2 °F 30 in SSE 8.1 mph 8.1 mph 62 % 0 in
14:47 82.9 °F 67.6 °F 30 in South 7.6 mph 7.6 mph 60 % 0 in
14:52 83.5 °F 68.2 °F 30 in WSW 5.9 mph 5.9 mph 60 % 0 in
14:57 83.5 °F 67.6 °F 30 in South 6.9 mph 6.9 mph 59 % 0 in
15:02 84 °F 67.1 °F 30 in SSE 11.5 mph 11.5 mph 57 % 0 in
15:07 84.4 °F 66.9 °F 30 in SSW 8.1 mph 8.1 mph 56 % 0 in
15:12 84.2 °F 66.4 °F 30 in SSW 10.4 mph 10.4 mph 55 % 0 in
15:17 85.5 °F 67.5 °F 30 in SW 10.5 mph 10.5 mph 55 % 0 in
15:22 85.8 °F 67.8 °F 30 in SW 6.9 mph 6.9 mph 55 % 0 in
15:27 85.1 °F 66 °F 30 in WNW 9.2 mph 9.2 mph 53 % 0 in
15:32 85.5 °F 66.4 °F 30 in SW 8.1 mph 8.1 mph 53 % 0 in
15:37 85.6 °F 66 °F 30 in WSW 4.6 mph 4.6 mph 52 % 0 in
15:42 86 °F 66.4 °F 30 in SSW 8.1 mph 8.1 mph 52 % 0 in
15:47 85.6 °F 66 °F 30 in SSW 8.1 mph 8.1 mph 52 % 0 in
15:52 85.1 °F 65.5 °F 30 in SSW 5.8 mph 5.8 mph 52 % 0 in
15:57 85.1 °F 65.5 °F 30 in SW 6.7 mph 6.7 mph 52 % 0 in
16:02 84.6 °F 64.9 °F 30 in SW 5.8 mph 5.8 mph 52 % 0 in
16:07 84.9 °F 64.8 °F 30 in South 8.1 mph 8.1 mph 51 % 0 in
16:12 85.1 °F 65.5 °F 30 in South 4.6 mph 4.6 mph 52 % 0 in
16:17 85.5 °F 65.3 °F 30 in WSW 6.4 mph 6.4 mph 51 % 0 in
16:22 85.1 °F 64.9 °F 30 in South 11.5 mph 11.5 mph 51 % 0 in
16:27 85.5 °F 65.3 °F 30 in South 5.8 mph 5.8 mph 51 % 0 in
16:32 84.9 °F 64.8 °F 30 in SW 7.1 mph 7.1 mph 51 % 0 in
16:37 84.7 °F 64.6 °F 30 in SSW 5.4 mph 5.4 mph 51 % 0 in
16:42 84.9 °F 64.8 °F 30 in SSW 9.8 mph 9.8 mph 51 % 0 in
16:47 84 °F 64.6 °F 30 in SSW 6.9 mph 6.9 mph 52 % 0 in
16:52 84.4 °F 64.2 °F 30 in WNW 6.9 mph 6.9 mph 51 % 0 in
16:57 84 °F 64.6 °F 30 in West 5.8 mph 5.8 mph 52 % 0 in
17:02 83.8 °F 64.2 °F 30 in SW 12.7 mph 12.7 mph 52 % 0 in
17:07 84.6 °F 64.9 °F 30 in SW 4.9 mph 4.9 mph 52 % 0 in
17:12 84.4 °F 64.8 °F 30 in WSW 8.1 mph 8.1 mph 52 % 0 in
17:17 84.4 °F 64.8 °F 30 in SSW 5.8 mph 5.8 mph 52 % 0 in
17:22 84.6 °F 64.9 °F 30 in WSW 10.9 mph 10.9 mph 52 % 0 in
17:27 83.7 °F 64.8 °F 30 in South 4.6 mph 4.6 mph 53 % 0 in
17:32 83.8 °F 64.9 °F 30 in WSW 6.4 mph 6.4 mph 53 % 0 in
17:37 82.6 °F 64.2 °F 30 in SSW 6.9 mph 6.9 mph 54 % 0 in
17:42 82.9 °F 64.6 °F 30 in WSW 9.2 mph 9.2 mph 54 % 0 in
17:47 82.4 °F 64 °F 30 in SW 11.5 mph 11.5 mph 54 % 0 in
17:52 82.6 °F 64.8 °F 30 in South 6 mph 6 mph 55 % 0 in
17:57 82.4 °F 64.6 °F 30 in SSW 8.1 mph 8.1 mph 55 % 0 in
18:02 82.6 °F 64.8 °F 30 in SSE 3.5 mph 3.5 mph 55 % 0 in
18:07 82.4 °F 64.6 °F 30 in SSE 8.1 mph 8.1 mph 55 % 0 in
18:12 82.2 °F 64.4 °F 30 in SW 4.9 mph 4.9 mph 55 % 0 in
18:17 82 °F 64.2 °F 30 in SW 4.6 mph 4.6 mph 55 % 0 in
18:22 81.9 °F 64.6 °F 30 in SSW 6.9 mph 6.9 mph 56 % 0 in
18:27 81.9 °F 64.6 °F 30 in WSW 4.6 mph 4.6 mph 56 % 0 in
18:32 81.5 °F 64.2 °F 30 in SSE 8.1 mph 8.1 mph 56 % 0 in
18:37 81.5 °F 64.2 °F 30 in West 6.9 mph 6.9 mph 56 % 0 in
18:42 81.5 °F 64.2 °F 30 in WSW 5.8 mph 5.8 mph 56 % 0 in
18:47 81.1 °F 64 °F 30 in SW 6.9 mph 6.9 mph 56 % 0 in
18:52 81 °F 64.2 °F 30 in SSW 3.5 mph 3.5 mph 57 % 0 in
18:57 80.8 °F 64 °F 30 in South 5.4 mph 5.4 mph 57 % 0 in
19:02 80.6 °F 64 °F 30 in SSW 5.8 mph 5.8 mph 57 % 0 in
19:07 80.2 °F 64 °F 30 in SSE 4.6 mph 4.6 mph 58 % 0 in
19:12 79.9 °F 64.2 °F 30 in SW 8.1 mph 8.1 mph 59 % 0 in
19:17 79.3 °F 63.9 °F 30 in SSW 4.6 mph 4.6 mph 59 % 0 in
19:22 79 °F 63.9 °F 30 in SW 9.2 mph 9.2 mph 60 % 0 in
19:27 79 °F 63.9 °F 30 in SW 4.6 mph 4.6 mph 60 % 0 in
19:32 78.6 °F 64 °F 30 in SW 4.6 mph 4.6 mph 61 % 0 in
19:37 78.1 °F 63.5 °F 30 in WSW 8.1 mph 8.1 mph 61 % 0 in
19:42 77.5 °F 63.5 °F 30 in South 5.8 mph 5.8 mph 62 % 0 in
19:47 77.5 °F 63.5 °F 30 in SSE 5.4 mph 5.4 mph 62 % 0 in
19:52 77.4 °F 63.3 °F 30 in SSW 7.4 mph 7.4 mph 62 % 0 in
19:57 77 °F 63.3 °F 30 in WSW 6.9 mph 6.9 mph 63 % 0 in
20:02 77 °F 63.3 °F 30 in West 4.6 mph 4.6 mph 63 % 0 in
20:03 76.8 °F 63.7 °F 30 in SSW 5.8 mph 5.8 mph 64 % 0 in
20:09 76.6 °F 63.5 °F 30 in SW 5.8 mph 5.8 mph 64 % 0 in
20:13 76.5 °F 63.9 °F 30 in SE 4.6 mph 4.6 mph 65 % 0 in
20:18 76.3 °F 63.7 °F 30 in South 5.8 mph 5.8 mph 65 % 0 in
20:23 76.1 °F 63.5 °F 30 in SE 1.2 mph 1.2 mph 65 % 0 in
20:28 76.1 °F 63.5 °F 30 in SW 5.9 mph 5.9 mph 65 % 0 in
20:33 75.9 °F 63.7 °F 30 in WSW 2.4 mph 2.4 mph 66 % 0 in
20:38 75.7 °F 63.7 °F 30 in SW 5.8 mph 5.8 mph 66 % 0 in
20:43 75.7 °F 63.7 °F 30.1 in SW 6.9 mph 6.9 mph 66 % 0 in
20:48 75.6 °F 63.9 °F 30.1 in SW 4.6 mph 4.6 mph 67 % 0 in
20:53 75.4 °F 63.1 °F 30.1 in South 4.6 mph 4.6 mph 66 % 0 in
20:58 75.6 °F 63.9 °F 30.1 in SW 2.3 mph   67 % 0 in
21:03 75.6 °F 63.9 °F 30.1 in SW 2.3 mph 2.3 mph 67 % 0 in
21:08 75.6 °F 63.9 °F 30.1 in SW 3.1 mph 3.1 mph 67 % 0 in
21:13 75.4 °F 63.7 °F 30.1 in SW 4.6 mph 4.6 mph 67 % 0 in
21:18 75.2 °F 63.5 °F 30.1 in SW 3.3 mph 3.3 mph 67 % 0 in
21:23 75.2 °F 63.5 °F 30.1 in South 3.5 mph 3.5 mph 67 % 0 in
21:28 75 °F 63.7 °F 30.1 in SSW 2.4 mph 2.4 mph 68 % 0 in
21:33 75 °F 63.7 °F 30.1 in SW 4.6 mph 4.6 mph 68 % 0 in
21:38 74.8 °F 64 °F 30.1 in SW 0.9 mph 0.9 mph 69 % 0 in
21:43 74.8 °F 64 °F 30 in WSW 3.1 mph 3.1 mph 69 % 0 in
21:48 74.8 °F 64 °F 30 in SW 4.6 mph 4.6 mph 69 % 0 in
21:53 74.7 °F 63.9 °F 30 in SW 2.3 mph 2.3 mph 69 % 0 in
21:58 74.7 °F 63.9 °F 30.1 in SW 2.3 mph 2.3 mph 69 % 0 in
22:03 74.7 °F 63.9 °F 30.1 in WSW 4.6 mph 4.6 mph 69 % 0 in
22:08 74.7 °F 63.9 °F 30.1 in SW 3.5 mph 3.5 mph 69 % 0 in
22:13 74.5 °F 63.7 °F 30.1 in WSW 3.5 mph 3.5 mph 69 % 0 in
22:18 74.5 °F 63.7 °F 30.1 in SW 3.1 mph 3.1 mph 69 % 0 in
22:23 74.5 °F 64 °F 30.1 in SW 2.6 mph 2.6 mph 70 % 0 in
22:28 74.5 °F 64 °F 30.1 in SW 2.4 mph 2.4 mph 70 % 0 in
22:33 74.3 °F 63.9 °F 30.1 in SW 2.3 mph 2.3 mph 70 % 0 in
22:39 74.3 °F 63.9 °F 30.1 in WSW 2.3 mph 2.3 mph 70 % 0 in
22:43 74.1 °F 63.7 °F 30.1 in WSW 2.3 mph 2.3 mph 70 % 0 in
22:48 74.1 °F 63.7 °F 30.1 in WSW 2.3 mph 2.3 mph 70 % 0 in
22:53 74.1 °F 64 °F 30.1 in SW 2.3 mph 2.3 mph 71 % 0 in
22:58 74.1 °F 64 °F 30.1 in SW 2.3 mph 2.3 mph 71 % 0 in
23:03 73.9 °F 63.9 °F 30.1 in SW 2.3 mph 2.3 mph 71 % 0 in
23:08 73.9 °F 63.9 °F 30.1 in WSW 2.3 mph 2.3 mph 71 % 0 in
23:13 73.9 °F 63.9 °F 30.1 in SW 2.2 mph   71 % 0 in
23:18 73.8 °F 63.9 °F 30.1 in SW 2.3 mph 2.3 mph 71 % 0 in
23:23 73.8 °F 63.9 °F 30.1 in SW 2.4 mph 2.6 mph 71 % 0 in
23:28 73.6 °F 63.7 °F 30.1 in WSW 2.4 mph 2.4 mph 71 % 0 in
23:33 73.4 °F 63.9 °F 30.1 in WSW 2.3 mph 2.3 mph 72 % 0 in
23:38 73.4 °F 63.9 °F 30.1 in SW 2.3 mph 2.3 mph 72 % 0 in
23:43 73.2 °F 63.7 °F 30.1 in WSW 2.3 mph 2.3 mph 72 % 0 in
23:48 73.2 °F 63.7 °F 30.1 in WSW 2.3 mph 2.3 mph 72 % 0 in
23:53 73.2 °F 63.7 °F 30.1 in West 2.3 mph 2.3 mph 72 % 0 in
23:58 73.2 °F 64 °F 30.1 in SW 2.3 mph 2.3 mph 73 % 0 in
Meteo Sesrovires
Elogis d' Weather Underground - 4 mb

Guio original per  Jim McMurry - jmcmurry@mwt.net Adaptat per a la plantilla per  Wim van der Kuil - Leuven-Template.eu

Trobareu la nostra informacio del temps tambe a:

Weather Underground

AWEKAS